• Join FlightAware (Why Join?)
  • Login
  • US Flag 
04:09PM EDT


 

Airport Tracker/Info


-or-


 

Live Flight TrackerFlight Track Log ✈ TAM3854 ✈ 14-Jun-2013 ✈ SBCF / CNF - SBBR / BSB

Flight Track Log - Related Links

Times and Time Zones

All times are in EDT time to prevent confusion due to time zone crossing. See the TAM3854 flight status page for this flight to view local times or setup timezone preferences in your user account.

Time Position Orientation Groundspeed Altitude Reporting Facility
EDT Latitude Longitude Course Direction KTS MPH feet Rate Location/Type
08:35PM -18.3209 -45.3705 314° West  Level Estimated
08:36PM -18.2720 -45.4220 315° West  Level Estimated
08:37PM -18.2232 -45.4735 315° West  Level Estimated
08:38PM -18.1744 -45.5249 315° West  Level Estimated
08:39PM -18.1255 -45.5764 315° West  Level Estimated
08:40PM -18.0766 -45.6277 315° West  Level Estimated
08:41PM -18.0277 -45.6791 315° West  Level Estimated
08:42PM -17.9788 -45.7304 315° West  Level Estimated
08:43PM -17.9299 -45.7817 315° West  Level Estimated
08:44PM -17.8810 -45.8330 315° West  Level Estimated
08:45PM -17.8320 -45.8842 315° West  Level Estimated
08:46PM -17.7830 -45.9354 315° West  Level Estimated
08:47PM -17.7341 -45.9866 315° West  Level Estimated
08:48PM -17.6851 -46.0377 315° West  Level Estimated
08:49PM -17.6361 -46.0889 315° West  Level Estimated
08:50PM -17.5871 -46.1400 315° West  Level Estimated
08:51PM -17.5380 -46.1910 315° West  Level Estimated
08:52PM -17.4890 -46.2421 315° West  Level Estimated
08:53PM -17.4400 -46.2931 315° West  Level Estimated
08:54PM -17.3909 -46.3441 315° West  Level Estimated
08:55PM -17.3418 -46.3951 315° West  Level Estimated
08:56PM -17.2927 -46.4460 315° West  Level Estimated
08:57PM -17.2436 -46.4969 315° West  Level Estimated
08:58PM -17.1945 -46.5478 315° West  Level Estimated
08:59PM -17.1454 -46.5986 315° West  Level Estimated
09:00PM -17.0962 -46.6494 315° West  Level Estimated
09:01PM -17.0471 -46.7002 315° West  Level Estimated
09:02PM -16.9979 -46.7510 315° West  Level Estimated
09:03PM -16.9487 -46.8018 315° West  Level Estimated
09:04PM -16.8995 -46.8525 315° West  Level Estimated
09:05PM -16.8503 -46.9032 315° West  Level Estimated
09:06PM -16.8011 -46.9538 315° West  Level Estimated
09:07PM -16.7519 -47.0045 315° West  Level Estimated
09:08PM -16.7026 -47.0551 315° West  Level Estimated
09:09PM -16.6534 -47.1057 315° West  Level Estimated
09:10PM -16.6041 -47.1562 315° West  Level Estimated
09:11PM -16.5548 -47.2068 315° West  Level Estimated
09:12PM -16.5055 -47.2573 316° Northwest  Level Estimated
09:13PM -16.4562 -47.3078 316° Northwest  Level Estimated
09:14PM -16.4069 -47.3582 316° Northwest  Level Estimated
09:15PM -16.3576 -47.4086 316° Northwest  Level Estimated
09:16PM -16.3082 -47.4591 316° Northwest  Level Estimated
09:17PM -16.2589 -47.5094 316° Northwest  Level Estimated
09:18PM -16.2095 -47.5598 316° Northwest  Level Estimated
09:19PM -16.1602 -47.6101 316° Northwest  Level Estimated
09:20PM -16.1108 -47.6604 316° Northwest  Level Estimated
09:21PM -16.0614 -47.7107 316° Northwest  Level Estimated
09:22PM -16.0119 -47.7610 316° Northwest  Level Estimated
09:23PM -15.9625 -47.8112 316° Northwest  Level Estimated
09:24PM -15.9131 -47.8614 316° Northwest  Level Estimated
09:25PM -15.8636 -47.9116 316° Northwest  Level Estimated
09:26PM -15.8626 -47.9127 316° Northwest  Level Estimated
09:27PM -15.8626 -47.9127 128° Southeast  Level Estimated
09:28PM -15.8626 -47.9127 128° Southeast  Level Estimated
09:29PM -15.8626 -47.9127 128° Southeast  Level Estimated
09:30PM -15.8626 -47.9127 128° Southeast  Level Estimated
09:31PM -15.8626 -47.9127 128° Southeast  Level Estimated
09:32PM -15.8626 -47.9127 128° Southeast  Level Estimated
09:33PM -15.8626 -47.9127 128° Southeast  Level Estimated
09:34PM -15.8626 -47.9127 128° Southeast  Level Estimated
09:35PM -15.8626 -47.9127 128° Southeast  Level Estimated
09:36PM -15.8626 -47.9127 128° Southeast  Level Estimated
09:37PM -15.8626 -47.9127 128° Southeast  Level Estimated
09:38PM -15.8626 -47.9127 128° Southeast  Level Estimated
09:39PM -15.8626 -47.9127 128° Southeast  Level Estimated
09:40PM -15.8626 -47.9127 128° Southeast  Level Estimated
09:41PM -15.8626 -47.9127 128° Southeast  Level Estimated